sensor_id;sensor_type;location;lat;lon;timestamp;P1;durP1;ratioP1;P2;durP2;ratioP2
23121;SDS011;11730;51.248;22.534;2023-09-08T00:01:00;18.40;;;8.45;;
23121;SDS011;11730;51.248;22.534;2023-09-08T00:03:27;16.00;;;9.35;;
23121;SDS011;11730;51.248;22.534;2023-09-08T00:05:54;11.90;;;8.25;;
23121;SDS011;11730;51.248;22.534;2023-09-08T00:08:22;17.45;;;8.10;;
23121;SDS011;11730;51.248;22.534;2023-09-08T00:10:50;14.20;;;8.15;;
23121;SDS011;11730;51.248;22.534;2023-09-08T00:13:17;13.45;;;8.88;;
23121;SDS011;11730;51.248;22.534;2023-09-08T00:15:45;12.48;;;8.00;;
23121;SDS011;11730;51.248;22.534;2023-09-08T00:18:12;11.98;;;8.07;;
23121;SDS011;11730;51.248;22.534;2023-09-08T00:20:39;10.93;;;7.70;;
23121;SDS011;11730;51.248;22.534;2023-09-08T00:23:08;11.88;;;7.70;;
23121;SDS011;11730;51.248;22.534;2023-09-08T00:25:35;14.82;;;9.00;;
23121;SDS011;11730;51.248;22.534;2023-09-08T00:28:03;14.57;;;8.75;;
23121;SDS011;11730;51.248;22.534;2023-09-08T00:30:30;17.17;;;7.78;;
23121;SDS011;11730;51.248;22.534;2023-09-08T00:32:57;12.63;;;7.70;;
23121;SDS011;11730;51.248;22.534;2023-09-08T00:35:25;15.02;;;8.20;;
23121;SDS011;11730;51.248;22.534;2023-09-08T00:37:52;14.68;;;8.23;;
23121;SDS011;11730;51.248;22.534;2023-09-08T00:40:19;17.73;;;8.50;;
23121;SDS011;11730;51.248;22.534;2023-09-08T00:42:47;13.10;;;8.07;;
23121;SDS011;11730;51.248;22.534;2023-09-08T00:45:14;15.02;;;8.75;;
23121;SDS011;11730;51.248;22.534;2023-09-08T00:47:42;10.48;;;7.22;;
23121;SDS011;11730;51.248;22.534;2023-09-08T00:50:10;17.45;;;8.63;;
23121;SDS011;11730;51.248;22.534;2023-09-08T00:52:38;13.38;;;8.10;;
23121;SDS011;11730;51.248;22.534;2023-09-08T00:55:06;13.45;;;8.50;;
23121;SDS011;11730;51.248;22.534;2023-09-08T00:57:33;15.80;;;8.57;;
23121;SDS011;11730;51.248;22.534;2023-09-08T01:00:00;18.40;;;8.10;;
23121;SDS011;11730;51.248;22.534;2023-09-08T01:02:30;15.77;;;8.13;;
23121;SDS011;11730;51.248;22.534;2023-09-08T01:04:58;11.07;;;7.45;;
23121;SDS011;11730;51.248;22.534;2023-09-08T01:07:26;12.48;;;8.07;;
23121;SDS011;11730;51.248;22.534;2023-09-08T01:09:56;11.98;;;7.93;;
23121;SDS011;11730;51.248;22.534;2023-09-08T01:14:56;14.23;;;8.25;;
23121;SDS011;11730;51.248;22.534;2023-09-08T01:17:23;15.95;;;7.85;;
23121;SDS011;11730;51.248;22.534;2023-09-08T01:19:50;13.00;;;7.65;;
23121;SDS011;11730;51.248;22.534;2023-09-08T01:22:23;14.48;;;7.90;;
23121;SDS011;11730;51.248;22.534;2023-09-08T01:27:23;11.73;;;7.82;;
23121;SDS011;11730;51.248;22.534;2023-09-08T01:29:52;10.80;;;7.93;;
23121;SDS011;11730;51.248;22.534;2023-09-08T01:32:20;13.52;;;8.40;;
23121;SDS011;11730;51.248;22.534;2023-09-08T01:34:48;14.52;;;8.00;;
23121;SDS011;11730;51.248;22.534;2023-09-08T01:37:15;15.57;;;8.30;;
23121;SDS011;11730;51.248;22.534;2023-09-08T01:39:42;11.77;;;8.07;;
23121;SDS011;11730;51.248;22.534;2023-09-08T01:42:09;12.55;;;7.55;;
23121;SDS011;11730;51.248;22.534;2023-09-08T01:44:36;16.23;;;8.38;;
23121;SDS011;11730;51.248;22.534;2023-09-08T01:47:04;13.65;;;8.32;;
23121;SDS011;11730;51.248;22.534;2023-09-08T01:49:31;16.75;;;8.18;;
23121;SDS011;11730;51.248;22.534;2023-09-08T01:51:58;12.75;;;8.20;;
23121;SDS011;11730;51.248;22.534;2023-09-08T01:54:25;13.57;;;7.78;;
23121;SDS011;11730;51.248;22.534;2023-09-08T01:56:52;15.25;;;8.20;;
23121;SDS011;11730;51.248;22.534;2023-09-08T01:59:20;14.48;;;8.73;;
23121;SDS011;11730;51.248;22.534;2023-09-08T02:01:47;13.43;;;8.32;;
23121;SDS011;11730;51.248;22.534;2023-09-08T02:04:15;14.13;;;7.65;;
23121;SDS011;11730;51.248;22.534;2023-09-08T02:06:42;15.20;;;8.82;;
23121;SDS011;11730;51.248;22.534;2023-09-08T02:09:11;13.27;;;8.35;;
23121;SDS011;11730;51.248;22.534;2023-09-08T02:11:40;12.48;;;8.45;;
23121;SDS011;11730;51.248;22.534;2023-09-08T02:14:08;15.30;;;9.48;;
23121;SDS011;11730;51.248;22.534;2023-09-08T02:16:35;14.20;;;8.35;;
23121;SDS011;11730;51.248;22.534;2023-09-08T02:19:02;14.30;;;9.20;;
23121;SDS011;11730;51.248;22.534;2023-09-08T02:21:30;15.70;;;8.52;;
23121;SDS011;11730;51.248;22.534;2023-09-08T02:23:57;13.20;;;9.13;;
23121;SDS011;11730;51.248;22.534;2023-09-08T02:26:24;17.40;;;9.07;;
23121;SDS011;11730;51.248;22.534;2023-09-08T02:28:53;14.57;;;9.18;;
23121;SDS011;11730;51.248;22.534;2023-09-08T02:31:20;15.35;;;9.18;;
23121;SDS011;11730;51.248;22.534;2023-09-08T02:33:48;14.38;;;9.82;;
23121;SDS011;11730;51.248;22.534;2023-09-08T02:36:15;16.08;;;9.20;;
23121;SDS011;11730;51.248;22.534;2023-09-08T02:38:42;16.27;;;10.20;;
23121;SDS011;11730;51.248;22.534;2023-09-08T02:41:10;15.27;;;8.88;;
23121;SDS011;11730;51.248;22.534;2023-09-08T02:43:36;14.45;;;9.50;;
23121;SDS011;11730;51.248;22.534;2023-09-08T02:46:03;15.95;;;9.35;;
23121;SDS011;11730;51.248;22.534;2023-09-08T02:48:31;18.35;;;9.57;;
23121;SDS011;11730;51.248;22.534;2023-09-08T02:50:58;14.73;;;9.02;;
23121;SDS011;11730;51.248;22.534;2023-09-08T02:53:26;15.70;;;9.27;;
23121;SDS011;11730;51.248;22.534;2023-09-08T02:55:55;14.82;;;8.73;;
23121;SDS011;11730;51.248;22.534;2023-09-08T02:58:22;17.55;;;10.30;;
23121;SDS011;11730;51.248;22.534;2023-09-08T03:00:50;15.38;;;8.98;;
23121;SDS011;11730;51.248;22.534;2023-09-08T03:03:18;14.70;;;10.18;;
23121;SDS011;11730;51.248;22.534;2023-09-08T03:05:46;17.98;;;10.30;;
23121;SDS011;11730;51.248;22.534;2023-09-08T03:08:13;16.95;;;9.68;;
23121;SDS011;11730;51.248;22.534;2023-09-08T03:10:40;15.65;;;9.30;;
23121;SDS011;11730;51.248;22.534;2023-09-08T03:13:07;17.20;;;9.02;;
23121;SDS011;11730;51.248;22.534;2023-09-08T03:15:35;16.00;;;9.30;;
23121;SDS011;11730;51.248;22.534;2023-09-08T03:18:02;14.93;;;8.85;;
23121;SDS011;11730;51.248;22.534;2023-09-08T03:20:29;13.63;;;9.00;;
23121;SDS011;11730;51.248;22.534;2023-09-08T03:22:56;19.40;;;9.13;;
23121;SDS011;11730;51.248;22.534;2023-09-08T03:25:23;16.02;;;9.68;;
23121;SDS011;11730;51.248;22.534;2023-09-08T03:27:50;14.02;;;9.00;;
23121;SDS011;11730;51.248;22.534;2023-09-08T03:30:17;18.05;;;9.00;;
23121;SDS011;11730;51.248;22.534;2023-09-08T03:32:45;14.63;;;8.77;;
23121;SDS011;11730;51.248;22.534;2023-09-08T03:35:12;14.63;;;9.35;;
23121;SDS011;11730;51.248;22.534;2023-09-08T03:37:40;13.13;;;8.98;;
23121;SDS011;11730;51.248;22.534;2023-09-08T03:40:07;16.48;;;9.55;;
23121;SDS011;11730;51.248;22.534;2023-09-08T03:42:35;17.67;;;9.40;;
23121;SDS011;11730;51.248;22.534;2023-09-08T03:45:02;19.63;;;11.95;;
23121;SDS011;11730;51.248;22.534;2023-09-08T03:47:30;16.80;;;10.80;;
23121;SDS011;11730;51.248;22.534;2023-09-08T03:49:57;20.73;;;10.57;;
23121;SDS011;11730;51.248;22.534;2023-09-08T03:52:24;18.23;;;9.90;;
23121;SDS011;11730;51.248;22.534;2023-09-08T03:54:52;19.95;;;9.65;;
23121;SDS011;11730;51.248;22.534;2023-09-08T03:57:19;18.20;;;9.30;;
23121;SDS011;11730;51.248;22.534;2023-09-08T03:59:47;19.27;;;9.95;;
23121;SDS011;11730;51.248;22.534;2023-09-08T04:02:13;17.83;;;9.73;;
23121;SDS011;11730;51.248;22.534;2023-09-08T04:04:41;15.00;;;10.05;;
23121;SDS011;11730;51.248;22.534;2023-09-08T04:07:08;17.35;;;9.52;;
23121;SDS011;11730;51.248;22.534;2023-09-08T04:09:36;21.02;;;10.02;;
23121;SDS011;11730;51.248;22.534;2023-09-08T04:12:03;18.02;;;9.68;;
23121;SDS011;11730;51.248;22.534;2023-09-08T04:14:32;19.80;;;9.18;;
23121;SDS011;11730;51.248;22.534;2023-09-08T04:17:00;17.52;;;9.63;;
23121;SDS011;11730;51.248;22.534;2023-09-08T04:19:27;13.95;;;8.70;;
23121;SDS011;11730;51.248;22.534;2023-09-08T04:21:54;16.55;;;9.25;;
23121;SDS011;11730;51.248;22.534;2023-09-08T04:24:21;17.17;;;9.38;;
23121;SDS011;11730;51.248;22.534;2023-09-08T04:26:48;15.82;;;8.98;;
23121;SDS011;11730;51.248;22.534;2023-09-08T04:29:15;18.70;;;9.15;;
23121;SDS011;11730;51.248;22.534;2023-09-08T04:31:42;17.38;;;10.10;;
23121;SDS011;11730;51.248;22.534;2023-09-08T04:34:10;20.77;;;10.13;;
23121;SDS011;11730;51.248;22.534;2023-09-08T04:36:37;19.45;;;10.80;;
23121;SDS011;11730;51.248;22.534;2023-09-08T04:39:05;24.95;;;10.00;;
23121;SDS011;11730;51.248;22.534;2023-09-08T04:41:35;29.88;;;10.80;;
23121;SDS011;11730;51.248;22.534;2023-09-08T04:44:02;17.80;;;9.90;;
23121;SDS011;11730;51.248;22.534;2023-09-08T04:46:30;23.02;;;10.32;;
23121;SDS011;11730;51.248;22.534;2023-09-08T04:48:57;15.75;;;10.25;;
23121;SDS011;11730;51.248;22.534;2023-09-08T04:51:25;20.15;;;10.25;;
23121;SDS011;11730;51.248;22.534;2023-09-08T04:53:51;16.42;;;9.77;;
23121;SDS011;11730;51.248;22.534;2023-09-08T04:56:19;19.63;;;10.10;;
23121;SDS011;11730;51.248;22.534;2023-09-08T04:58:46;22.73;;;10.05;;
23121;SDS011;11730;51.248;22.534;2023-09-08T05:01:14;18.90;;;11.63;;
23121;SDS011;11730;51.248;22.534;2023-09-08T05:03:41;17.00;;;9.93;;
23121;SDS011;11730;51.248;22.534;2023-09-08T05:06:09;19.27;;;10.18;;
23121;SDS011;11730;51.248;22.534;2023-09-08T05:08:36;21.42;;;10.23;;
23121;SDS011;11730;51.248;22.534;2023-09-08T05:11:03;18.65;;;10.13;;
23121;SDS011;11730;51.248;22.534;2023-09-08T05:13:31;24.25;;;9.88;;
23121;SDS011;11730;51.248;22.534;2023-09-08T05:15:58;17.13;;;10.32;;
23121;SDS011;11730;51.248;22.534;2023-09-08T05:18:38;18.85;;;10.55;;
23121;SDS011;11730;51.248;22.534;2023-09-08T05:21:06;23.13;;;10.73;;
23121;SDS011;11730;51.248;22.534;2023-09-08T05:23:33;17.27;;;10.40;;
23121;SDS011;11730;51.248;22.534;2023-09-08T05:26:00;17.77;;;10.32;;
23121;SDS011;11730;51.248;22.534;2023-09-08T05:28:27;17.92;;;10.20;;
23121;SDS011;11730;51.248;22.534;2023-09-08T05:30:55;15.75;;;10.23;;
23121;SDS011;11730;51.248;22.534;2023-09-08T05:33:22;23.27;;;10.32;;
23121;SDS011;11730;51.248;22.534;2023-09-08T05:35:49;18.20;;;10.77;;
23121;SDS011;11730;51.248;22.534;2023-09-08T05:38:16;18.38;;;10.63;;
23121;SDS011;11730;51.248;22.534;2023-09-08T05:40:43;19.35;;;10.98;;
23121;SDS011;11730;51.248;22.534;2023-09-08T05:43:10;21.58;;;11.15;;
23121;SDS011;11730;51.248;22.534;2023-09-08T05:45:38;22.05;;;10.85;;
23121;SDS011;11730;51.248;22.534;2023-09-08T05:48:05;24.60;;;10.80;;
23121;SDS011;11730;51.248;22.534;2023-09-08T05:50:33;18.70;;;10.75;;
23121;SDS011;11730;51.248;22.534;2023-09-08T05:52:59;18.10;;;10.70;;
23121;SDS011;11730;51.248;22.534;2023-09-08T05:55:27;22.58;;;10.82;;
23121;SDS011;11730;51.248;22.534;2023-09-08T05:57:54;24.75;;;11.43;;
23121;SDS011;11730;51.248;22.534;2023-09-08T06:00:22;22.63;;;11.90;;
23121;SDS011;11730;51.248;22.534;2023-09-08T06:02:49;26.15;;;11.38;;
23121;SDS011;11730;51.248;22.534;2023-09-08T06:05:16;18.25;;;10.93;;
23121;SDS011;11730;51.248;22.534;2023-09-08T06:07:43;18.25;;;11.30;;
23121;SDS011;11730;51.248;22.534;2023-09-08T06:10:29;23.25;;;11.18;;
23121;SDS011;11730;51.248;22.534;2023-09-08T06:12:57;23.70;;;12.30;;
23121;SDS011;11730;51.248;22.534;2023-09-08T06:15:24;24.08;;;11.85;;
23121;SDS011;11730;51.248;22.534;2023-09-08T06:17:51;18.40;;;11.40;;
23121;SDS011;11730;51.248;22.534;2023-09-08T06:20:18;19.60;;;11.65;;
23121;SDS011;11730;51.248;22.534;2023-09-08T06:22:45;22.15;;;10.68;;
23121;SDS011;11730;51.248;22.534;2023-09-08T06:25:12;23.65;;;12.18;;
23121;SDS011;11730;51.248;22.534;2023-09-08T06:27:39;25.45;;;10.75;;
23121;SDS011;11730;51.248;22.534;2023-09-08T06:30:06;23.20;;;10.20;;
23121;SDS011;11730;51.248;22.534;2023-09-08T06:32:33;26.02;;;10.55;;
23121;SDS011;11730;51.248;22.534;2023-09-08T06:35:00;20.35;;;11.88;;
23121;SDS011;11730;51.248;22.534;2023-09-08T06:37:28;19.45;;;10.65;;
23121;SDS011;11730;51.248;22.534;2023-09-08T06:39:55;19.50;;;10.30;;
23121;SDS011;11730;51.248;22.534;2023-09-08T06:42:22;17.42;;;10.40;;
23121;SDS011;11730;51.248;22.534;2023-09-08T06:44:49;20.80;;;10.88;;
23121;SDS011;11730;51.248;22.534;2023-09-08T06:47:16;15.73;;;10.73;;
23121;SDS011;11730;51.248;22.534;2023-09-08T06:49:43;14.90;;;9.65;;
23121;SDS011;11730;51.248;22.534;2023-09-08T06:52:10;21.42;;;10.98;;
23121;SDS011;11730;51.248;22.534;2023-09-08T06:54:37;23.38;;;9.68;;
23121;SDS011;11730;51.248;22.534;2023-09-08T06:57:05;19.05;;;10.68;;
23121;SDS011;11730;51.248;22.534;2023-09-08T06:59:31;17.17;;;9.90;;
23121;SDS011;11730;51.248;22.534;2023-09-08T07:01:59;19.00;;;9.18;;
23121;SDS011;11730;51.248;22.534;2023-09-08T07:04:26;14.70;;;8.40;;
23121;SDS011;11730;51.248;22.534;2023-09-08T07:06:54;18.15;;;9.52;;
23121;SDS011;11730;51.248;22.534;2023-09-08T07:09:21;15.45;;;8.88;;
23121;SDS011;11730;51.248;22.534;2023-09-08T07:11:49;18.33;;;8.80;;
23121;SDS011;11730;51.248;22.534;2023-09-08T07:14:15;16.08;;;8.05;;
23121;SDS011;11730;51.248;22.534;2023-09-08T07:16:42;15.77;;;8.32;;
23121;SDS011;11730;51.248;22.534;2023-09-08T07:19:09;18.35;;;8.10;;
23121;SDS011;11730;51.248;22.534;2023-09-08T07:21:37;16.50;;;7.97;;
23121;SDS011;11730;51.248;22.534;2023-09-08T07:24:04;18.70;;;8.52;;
23121;SDS011;11730;51.248;22.534;2023-09-08T07:26:31;12.90;;;7.22;;
23121;SDS011;11730;51.248;22.534;2023-09-08T07:28:58;15.40;;;8.68;;
23121;SDS011;11730;51.248;22.534;2023-09-08T07:31:25;16.75;;;7.95;;
23121;SDS011;11730;51.248;22.534;2023-09-08T07:33:52;12.52;;;7.20;;
23121;SDS011;11730;51.248;22.534;2023-09-08T07:36:19;20.38;;;7.45;;
23121;SDS011;11730;51.248;22.534;2023-09-08T07:38:47;21.77;;;7.57;;
23121;SDS011;11730;51.248;22.534;2023-09-08T07:41:14;18.55;;;7.28;;
23121;SDS011;11730;51.248;22.534;2023-09-08T07:43:41;15.90;;;7.05;;
23121;SDS011;11730;51.248;22.534;2023-09-08T07:46:11;20.77;;;8.32;;
23121;SDS011;11730;51.248;22.534;2023-09-08T07:48:38;23.45;;;8.73;;
23121;SDS011;11730;51.248;22.534;2023-09-08T07:51:05;22.35;;;8.82;;
23121;SDS011;11730;51.248;22.534;2023-09-08T07:53:32;19.40;;;9.25;;
23121;SDS011;11730;51.248;22.534;2023-09-08T07:56:00;16.00;;;8.30;;
23121;SDS011;11730;51.248;22.534;2023-09-08T07:58:27;21.60;;;7.88;;
23121;SDS011;11730;51.248;22.534;2023-09-08T08:00:54;19.20;;;7.47;;
23121;SDS011;11730;51.248;22.534;2023-09-08T08:03:21;24.02;;;8.98;;
23121;SDS011;11730;51.248;22.534;2023-09-08T08:05:49;23.10;;;7.90;;
23121;SDS011;11730;51.248;22.534;2023-09-08T08:08:16;10.98;;;5.85;;
23121;SDS011;11730;51.248;22.534;2023-09-08T08:10:42;15.20;;;5.43;;
23121;SDS011;11730;51.248;22.534;2023-09-08T08:13:09;7.35;;;4.32;;
23121;SDS011;11730;51.248;22.534;2023-09-08T08:15:37;9.32;;;4.55;;
23121;SDS011;11730;51.248;22.534;2023-09-08T08:18:06;12.00;;;3.53;;
23121;SDS011;11730;51.248;22.534;2023-09-08T08:20:33;7.88;;;3.30;;
23121;SDS011;11730;51.248;22.534;2023-09-08T08:23:02;9.40;;;3.90;;
23121;SDS011;11730;51.248;22.534;2023-09-08T08:25:29;11.88;;;4.10;;
23121;SDS011;11730;51.248;22.534;2023-09-08T08:27:56;8.63;;;3.60;;
23121;SDS011;11730;51.248;22.534;2023-09-08T08:30:24;7.43;;;3.92;;
23121;SDS011;11730;51.248;22.534;2023-09-08T08:32:52;11.10;;;4.60;;
23121;SDS011;11730;51.248;22.534;2023-09-08T08:35:20;8.55;;;4.85;;
23121;SDS011;11730;51.248;22.534;2023-09-08T08:37:47;8.57;;;4.88;;
23121;SDS011;11730;51.248;22.534;2023-09-08T08:40:14;13.35;;;5.18;;
23121;SDS011;11730;51.248;22.534;2023-09-08T08:42:41;7.88;;;4.28;;
23121;SDS011;11730;51.248;22.534;2023-09-08T08:45:10;9.45;;;3.70;;
23121;SDS011;11730;51.248;22.534;2023-09-08T08:47:41;7.78;;;3.83;;
23121;SDS011;11730;51.248;22.534;2023-09-08T08:50:09;6.43;;;3.22;;
23121;SDS011;11730;51.248;22.534;2023-09-08T08:52:37;7.70;;;3.72;;
23121;SDS011;11730;51.248;22.534;2023-09-08T08:55:06;4.78;;;3.17;;
23121;SDS011;11730;51.248;22.534;2023-09-08T08:57:34;5.95;;;3.10;;
23121;SDS011;11730;51.248;22.534;2023-09-08T09:00:07;5.55;;;3.25;;
23121;SDS011;11730;51.248;22.534;2023-09-08T09:02:40;7.22;;;4.10;;
23121;SDS011;11730;51.248;22.534;2023-09-08T09:05:12;7.10;;;3.67;;
23121;SDS011;11730;51.248;22.534;2023-09-08T09:07:43;10.10;;;3.53;;
23121;SDS011;11730;51.248;22.534;2023-09-08T09:10:10;10.07;;;3.65;;
23121;SDS011;11730;51.248;22.534;2023-09-08T09:12:38;10.95;;;3.17;;
23121;SDS011;11730;51.248;22.534;2023-09-08T09:15:05;12.20;;;3.95;;
23121;SDS011;11730;51.248;22.534;2023-09-08T09:17:34;5.72;;;3.15;;
23121;SDS011;11730;51.248;22.534;2023-09-08T09:20:15;4.80;;;3.13;;
23121;SDS011;11730;51.248;22.534;2023-09-08T09:22:44;7.73;;;3.40;;
23121;SDS011;11730;51.248;22.534;2023-09-08T09:25:21;8.02;;;3.15;;
23121;SDS011;11730;51.248;22.534;2023-09-08T09:27:50;8.70;;;3.30;;
23121;SDS011;11730;51.248;22.534;2023-09-08T09:30:17;4.53;;;3.13;;
23121;SDS011;11730;51.248;22.534;2023-09-08T09:32:45;9.13;;;3.60;;
23121;SDS011;11730;51.248;22.534;2023-09-08T09:35:12;5.90;;;3.25;;
23121;SDS011;11730;51.248;22.534;2023-09-08T09:37:40;4.38;;;3.17;;
23121;SDS011;11730;51.248;22.534;2023-09-08T09:40:07;5.45;;;3.78;;
23121;SDS011;11730;51.248;22.534;2023-09-08T09:42:38;4.80;;;3.08;;
23121;SDS011;11730;51.248;22.534;2023-09-08T09:45:08;5.30;;;3.35;;
23121;SDS011;11730;51.248;22.534;2023-09-08T09:47:35;4.68;;;2.78;;
23121;SDS011;11730;51.248;22.534;2023-09-08T09:50:03;6.28;;;3.47;;
23121;SDS011;11730;51.248;22.534;2023-09-08T09:52:30;6.32;;;3.20;;
23121;SDS011;11730;51.248;22.534;2023-09-08T09:54:58;7.45;;;3.35;;
23121;SDS011;11730;51.248;22.534;2023-09-08T09:57:26;6.35;;;3.03;;
23121;SDS011;11730;51.248;22.534;2023-09-08T09:59:53;8.82;;;3.40;;
23121;SDS011;11730;51.248;22.534;2023-09-08T10:02:22;10.43;;;3.70;;
23121;SDS011;11730;51.248;22.534;2023-09-08T10:04:50;8.65;;;3.60;;
23121;SDS011;11730;51.248;22.534;2023-09-08T10:07:17;5.88;;;3.17;;
23121;SDS011;11730;51.248;22.534;2023-09-08T10:09:45;8.60;;;3.30;;
23121;SDS011;11730;51.248;22.534;2023-09-08T10:12:13;7.20;;;3.30;;
23121;SDS011;11730;51.248;22.534;2023-09-08T10:14:44;8.13;;;3.45;;
23121;SDS011;11730;51.248;22.534;2023-09-08T10:19:47;9.35;;;3.50;;
23121;SDS011;11730;51.248;22.534;2023-09-08T10:22:22;8.07;;;5.43;;
23121;SDS011;11730;51.248;22.534;2023-09-08T10:24:54;4.18;;;3.13;;
23121;SDS011;11730;51.248;22.534;2023-09-08T10:27:22;4.35;;;3.15;;
23121;SDS011;11730;51.248;22.534;2023-09-08T10:29:50;5.38;;;3.10;;
23121;SDS011;11730;51.248;22.534;2023-09-08T10:32:19;6.78;;;2.97;;
23121;SDS011;11730;51.248;22.534;2023-09-08T10:34:47;7.40;;;3.47;;
23121;SDS011;11730;51.248;22.534;2023-09-08T10:37:22;4.38;;;3.08;;
23121;SDS011;11730;51.248;22.534;2023-09-08T10:39:51;5.32;;;2.97;;
23121;SDS011;11730;51.248;22.534;2023-09-08T10:42:23;6.55;;;3.33;;
23121;SDS011;11730;51.248;22.534;2023-09-08T10:44:56;10.18;;;3.60;;
23121;SDS011;11730;51.248;22.534;2023-09-08T10:47:25;9.35;;;3.15;;
23121;SDS011;11730;51.248;22.534;2023-09-08T10:52:26;6.13;;;2.97;;
23121;SDS011;11730;51.248;22.534;2023-09-08T10:54:54;5.38;;;2.95;;
23121;SDS011;11730;51.248;22.534;2023-09-08T10:57:25;4.47;;;2.80;;
23121;SDS011;11730;51.248;22.534;2023-09-08T10:59:56;6.72;;;3.20;;
23121;SDS011;11730;51.248;22.534;2023-09-08T11:05:14;5.22;;;3.03;;
23121;SDS011;11730;51.248;22.534;2023-09-08T11:07:43;7.65;;;2.70;;
23121;SDS011;11730;51.248;22.534;2023-09-08T11:10:11;6.32;;;2.80;;
23121;SDS011;11730;51.248;22.534;2023-09-08T11:12:39;4.05;;;2.75;;
23121;SDS011;11730;51.248;22.534;2023-09-08T11:15:07;4.10;;;2.65;;
23121;SDS011;11730;51.248;22.534;2023-09-08T11:17:36;3.72;;;2.75;;
23121;SDS011;11730;51.248;22.534;2023-09-08T11:20:08;6.93;;;3.15;;
23121;SDS011;11730;51.248;22.534;2023-09-08T11:22:37;7.90;;;3.00;;
23121;SDS011;11730;51.248;22.534;2023-09-08T11:25:09;3.60;;;3.10;;
23121;SDS011;11730;51.248;22.534;2023-09-08T11:27:39;6.55;;;3.17;;
23121;SDS011;11730;51.248;22.534;2023-09-08T11:30:10;6.25;;;3.50;;
23121;SDS011;11730;51.248;22.534;2023-09-08T11:32:39;8.27;;;3.38;;
23121;SDS011;11730;51.248;22.534;2023-09-08T11:35:07;4.35;;;2.70;;
23121;SDS011;11730;51.248;22.534;2023-09-08T11:37:36;8.25;;;3.50;;
23121;SDS011;11730;51.248;22.534;2023-09-08T11:40:05;4.30;;;2.90;;
23121;SDS011;11730;51.248;22.534;2023-09-08T11:42:39;3.90;;;2.97;;
23121;SDS011;11730;51.248;22.534;2023-09-08T11:45:12;3.53;;;2.55;;
23121;SDS011;11730;51.248;22.534;2023-09-08T11:47:40;7.07;;;3.03;;
23121;SDS011;11730;51.248;22.534;2023-09-08T11:50:11;6.85;;;3.47;;
23121;SDS011;11730;51.248;22.534;2023-09-08T11:52:48;6.22;;;3.75;;
23121;SDS011;11730;51.248;22.534;2023-09-08T11:55:17;3.42;;;3.13;;
23121;SDS011;11730;51.248;22.534;2023-09-08T11:57:46;5.20;;;3.20;;
23121;SDS011;11730;51.248;22.534;2023-09-08T12:00:17;3.67;;;2.97;;
23121;SDS011;11730;51.248;22.534;2023-09-08T12:02:45;5.07;;;3.10;;
23121;SDS011;11730;51.248;22.534;2023-09-08T12:05:13;6.13;;;3.38;;
23121;SDS011;11730;51.248;22.534;2023-09-08T12:07:49;7.65;;;3.30;;
23121;SDS011;11730;51.248;22.534;2023-09-08T12:10:17;6.25;;;3.00;;
23121;SDS011;11730;51.248;22.534;2023-09-08T12:12:45;5.68;;;3.25;;
23121;SDS011;11730;51.248;22.534;2023-09-08T12:15:28;6.13;;;2.88;;
23121;SDS011;11730;51.248;22.534;2023-09-08T12:18:12;5.97;;;3.47;;
23121;SDS011;11730;51.248;22.534;2023-09-08T12:20:43;5.30;;;3.33;;
23121;SDS011;11730;51.248;22.534;2023-09-08T12:23:17;4.63;;;3.25;;
23121;SDS011;11730;51.248;22.534;2023-09-08T12:25:46;5.30;;;3.03;;
23121;SDS011;11730;51.248;22.534;2023-09-08T12:28:19;4.90;;;2.83;;
23121;SDS011;11730;51.248;22.534;2023-09-08T12:30:48;5.43;;;2.95;;
23121;SDS011;11730;51.248;22.534;2023-09-08T12:33:16;8.75;;;3.10;;
23121;SDS011;11730;51.248;22.534;2023-09-08T12:35:47;4.93;;;2.72;;
23121;SDS011;11730;51.248;22.534;2023-09-08T12:38:19;6.45;;;2.88;;
23121;SDS011;11730;51.248;22.534;2023-09-08T12:40:47;3.75;;;2.70;;
23121;SDS011;11730;51.248;22.534;2023-09-08T12:43:14;8.43;;;2.80;;
23121;SDS011;11730;51.248;22.534;2023-09-08T12:45:56;3.85;;;2.70;;
23121;SDS011;11730;51.248;22.534;2023-09-08T12:48:24;7.13;;;3.78;;
23121;SDS011;11730;51.248;22.534;2023-09-08T12:50:51;4.57;;;2.92;;
23121;SDS011;11730;51.248;22.534;2023-09-08T12:53:18;10.48;;;3.42;;
23121;SDS011;11730;51.248;22.534;2023-09-08T12:55:47;7.28;;;3.58;;
23121;SDS011;11730;51.248;22.534;2023-09-08T12:58:14;8.30;;;4.28;;
23121;SDS011;11730;51.248;22.534;2023-09-08T13:00:42;5.43;;;3.42;;
23121;SDS011;11730;51.248;22.534;2023-09-08T13:03:10;4.47;;;3.33;;
23121;SDS011;11730;51.248;22.534;2023-09-08T13:05:37;5.97;;;3.20;;
23121;SDS011;11730;51.248;22.534;2023-09-08T13:08:05;7.55;;;4.40;;
23121;SDS011;11730;51.248;22.534;2023-09-08T13:10:33;7.45;;;3.70;;
23121;SDS011;11730;51.248;22.534;2023-09-08T13:13:00;7.95;;;3.60;;
23121;SDS011;11730;51.248;22.534;2023-09-08T13:15:28;9.10;;;3.72;;
23121;SDS011;11730;51.248;22.534;2023-09-08T13:17:55;6.78;;;3.95;;
23121;SDS011;11730;51.248;22.534;2023-09-08T13:20:23;7.20;;;3.67;;
23121;SDS011;11730;51.248;22.534;2023-09-08T13:22:50;4.60;;;2.97;;
23121;SDS011;11730;51.248;22.534;2023-09-08T13:25:17;9.30;;;3.70;;
23121;SDS011;11730;51.248;22.534;2023-09-08T13:27:45;6.43;;;3.22;;
23121;SDS011;11730;51.248;22.534;2023-09-08T13:30:14;3.88;;;2.78;;
23121;SDS011;11730;51.248;22.534;2023-09-08T13:32:43;7.22;;;3.20;;
23121;SDS011;11730;51.248;22.534;2023-09-08T13:35:11;6.63;;;3.30;;
23121;SDS011;11730;51.248;22.534;2023-09-08T13:37:39;10.45;;;3.15;;
23121;SDS011;11730;51.248;22.534;2023-09-08T13:40:06;6.00;;;3.00;;
23121;SDS011;11730;51.248;22.534;2023-09-08T13:42:35;5.00;;;3.50;;
23121;SDS011;11730;51.248;22.534;2023-09-08T13:45:02;9.27;;;3.13;;
23121;SDS011;11730;51.248;22.534;2023-09-08T13:47:30;5.63;;;2.97;;
23121;SDS011;11730;51.248;22.534;2023-09-08T13:49:58;4.28;;;3.30;;
23121;SDS011;11730;51.248;22.534;2023-09-08T13:52:30;8.25;;;3.83;;
23121;SDS011;11730;51.248;22.534;2023-09-08T13:55:02;8.70;;;3.50;;
23121;SDS011;11730;51.248;22.534;2023-09-08T13:57:52;6.38;;;2.78;;
23121;SDS011;11730;51.248;22.534;2023-09-08T14:00:21;5.72;;;3.30;;
23121;SDS011;11730;51.248;22.534;2023-09-08T14:02:50;5.65;;;3.22;;
23121;SDS011;11730;51.248;22.534;2023-09-08T14:05:24;4.72;;;3.00;;
23121;SDS011;11730;51.248;22.534;2023-09-08T14:07:54;5.40;;;3.30;;
23121;SDS011;11730;51.248;22.534;2023-09-08T14:10:33;3.90;;;3.03;;
23121;SDS011;11730;51.248;22.534;2023-09-08T14:13:10;8.40;;;3.28;;
23121;SDS011;11730;51.248;22.534;2023-09-08T14:15:37;11.15;;;3.88;;
23121;SDS011;11730;51.248;22.534;2023-09-08T14:18:05;8.23;;;3.35;;
23121;SDS011;11730;51.248;22.534;2023-09-08T14:20:32;6.03;;;3.70;;
23121;SDS011;11730;51.248;22.534;2023-09-08T14:23:00;5.00;;;2.97;;
23121;SDS011;11730;51.248;22.534;2023-09-08T14:25:27;9.07;;;3.53;;
23121;SDS011;11730;51.248;22.534;2023-09-08T14:27:54;9.00;;;3.80;;
23121;SDS011;11730;51.248;22.534;2023-09-08T14:30:26;9.88;;;3.63;;
23121;SDS011;11730;51.248;22.534;2023-09-08T14:32:53;7.05;;;3.08;;
23121;SDS011;11730;51.248;22.534;2023-09-08T14:35:20;7.88;;;3.00;;
23121;SDS011;11730;51.248;22.534;2023-09-08T14:37:47;4.53;;;2.72;;
23121;SDS011;11730;51.248;22.534;2023-09-08T14:40:15;6.25;;;2.95;;
23121;SDS011;11730;51.248;22.534;2023-09-08T14:42:42;3.65;;;2.90;;